Time;durP1;ratioP1;P1;durP2;ratioP2;P2;SDS_P1;SDS_P2;PMS_P1;PMS_P2;Temp;Humidity;BMP_temperature;BMP_pressure;BME280_temperature;BME280_humidity;BME280_pressure;Samples;Min_cycle;Max_cycle;Signal;HPM_P1;HPM_P2
2023/08/08 00:00:35;;;;;;;7.53;1.98;;;;;;;;;;4998761;28;20132;-80
2023/08/08 00:03:00;;;;;;;6.57;1.60;;;;;;;;;;5016657;28;20104;-80
2023/08/08 00:05:25;;;;;;;7.15;1.70;;;;;;;;;;5003736;28;20041;-81
2023/08/08 00:07:51;;;;;;;6.45;1.77;;;;;;;;;;4997742;28;20161;-80
2023/08/08 00:10:16;;;;;;;4.45;1.63;;;;;;;;;;5012243;28;20034;-81
2023/08/08 00:12:44;;;;;;;10.25;1.77;;;;;;;;;;5016862;28;20133;-82
2023/08/08 00:15:10;;;;;;;5.80;1.63;;;;;;;;;;5011942;28;20040;-81
2023/08/08 00:17:35;;;;;;;5.57;1.50;;;;;;;;;;5003321;28;20030;-80
2023/08/08 00:20:16;;;;;;;5.95;1.70;;;;;;;;;;5001218;28;20049;-82
2023/08/08 00:22:42;;;;;;;4.63;1.73;;;;;;;;;;4999578;28;20042;-81
2023/08/08 00:25:08;;;;;;;4.07;1.60;;;;;;;;;;4992831;28;20045;-82
2023/08/08 00:27:34;;;;;;;4.47;1.63;;;;;;;;;;4998123;28;20038;-81
2023/08/08 00:30:00;;;;;;;6.80;1.67;;;;;;;;;;5006428;28;20064;-81
2023/08/08 00:32:25;;;;;;;6.03;1.85;;;;;;;;;;4994074;28;20508;-81
2023/08/08 00:34:51;;;;;;;4.47;1.55;;;;;;;;;;4997126;28;20037;-82
2023/08/08 00:37:16;;;;;;;5.95;1.67;;;;;;;;;;5011580;28;20042;-81
2023/08/08 00:39:45;;;;;;;9.35;2.13;;;;;;;;;;5003871;28;20060;-81
2023/08/08 00:42:11;;;;;;;5.85;1.50;;;;;;;;;;5004104;28;20119;-81
2023/08/08 00:44:37;;;;;;;5.30;1.77;;;;;;;;;;5021134;28;20072;-81
2023/08/08 00:47:03;;;;;;;5.85;1.70;;;;;;;;;;5002112;28;20056;-81
2023/08/08 00:49:28;;;;;;;5.53;1.48;;;;;;;;;;4998863;28;20034;-81
2023/08/08 00:51:54;;;;;;;5.70;1.60;;;;;;;;;;4996238;28;20037;-81
2023/08/08 00:54:21;;;;;;;7.85;1.60;;;;;;;;;;5010756;28;20044;-81
2023/08/08 00:56:47;;;;;;;;;;;;;;;;;;5001575;28;20128;-80
2023/08/08 00:59:14;;;;;;;5.13;1.63;;;;;;;;;;5012607;28;20050;-81
2023/08/08 01:01:42;;;;;;;6.82;1.65;;;;;;;;;;5001081;28;20045;-81
2023/08/08 01:04:07;;;;;;;7.00;1.85;;;;;;;;;;5000053;28;20045;-81
2023/08/08 01:06:39;;;;;;;9.13;1.60;;;;;;;;;;5004284;28;20042;-82
2023/08/08 01:09:13;;;;;;;4.28;1.63;;;;;;;;;;5004318;28;20045;-81
2023/08/08 01:11:39;;;;;;;4.95;1.60;;;;;;;;;;5032562;28;20048;-80
2023/08/08 01:14:06;;;;;;;5.30;1.67;;;;;;;;;;5002299;28;20047;-80
2023/08/08 01:16:32;;;;;;;8.00;1.85;;;;;;;;;;5010931;28;20033;-81
2023/08/08 01:18:58;;;;;;;4.93;1.50;;;;;;;;;;5010635;28;20045;-81
2023/08/08 01:21:26;;;;;;;4.93;1.42;;;;;;;;;;4997268;28;20048;-81
2023/08/08 01:23:53;;;;;;;4.95;1.40;;;;;;;;;;5014634;28;20575;-80
2023/08/08 01:26:20;;;;;;;4.50;1.37;;;;;;;;;;5006886;28;20127;-81
2023/08/08 01:28:46;;;;;;;4.88;1.73;;;;;;;;;;5007205;28;20796;-81
2023/08/08 01:31:11;;;;;;;4.80;1.50;;;;;;;;;;4998483;28;20029;-81
2023/08/08 01:33:37;;;;;;;3.58;1.20;;;;;;;;;;5004572;28;20370;-81
2023/08/08 01:36:17;;;;;;;2.95;1.38;;;;;;;;;;5010555;28;20034;-82
2023/08/08 01:38:44;;;;;;;5.53;1.48;;;;;;;;;;5008725;28;20055;-81
2023/08/08 01:41:10;;;;;;;4.18;1.10;;;;;;;;;;5009588;28;20374;-81
2023/08/08 01:43:38;;;;;;;4.20;1.27;;;;;;;;;;5013475;28;20057;-82
2023/08/08 01:46:04;;;;;;;3.88;1.13;;;;;;;;;;4998517;28;20438;-82
2023/08/08 01:48:29;;;;;;;5.00;1.38;;;;;;;;;;5003687;28;20393;-82
2023/08/08 01:50:57;;;;;;;3.30;1.10;;;;;;;;;;4992337;28;20033;-82
2023/08/08 01:53:23;;;;;;;4.03;1.30;;;;;;;;;;4998671;28;20029;-82
2023/08/08 01:55:48;;;;;;;3.65;1.20;;;;;;;;;;4995426;28;20036;-82
2023/08/08 01:58:14;;;;;;;3.65;1.23;;;;;;;;;;4994467;28;20026;-81
2023/08/08 02:00:40;;;;;;;4.00;1.30;;;;;;;;;;5012885;28;20089;-82
2023/08/08 02:03:06;;;;;;;6.53;1.40;;;;;;;;;;5010014;28;20037;-81
2023/08/08 02:05:32;;;;;;;4.30;1.20;;;;;;;;;;4994491;28;20059;-82
2023/08/08 02:07:57;;;;;;;5.30;1.42;;;;;;;;;;5013691;28;20050;-82
2023/08/08 02:10:22;;;;;;;3.72;1.20;;;;;;;;;;5005517;28;20092;-82
2023/08/08 02:12:48;;;;;;;6.18;1.50;;;;;;;;;;5012885;28;20108;-81
2023/08/08 02:15:13;;;;;;;5.85;1.33;;;;;;;;;;5015919;28;20060;-81
2023/08/08 02:17:39;;;;;;;5.32;1.60;;;;;;;;;;5006840;28;20046;-81
2023/08/08 02:20:06;;;;;;;5.95;1.45;;;;;;;;;;5007151;28;20066;-82
2023/08/08 02:22:32;;;;;;;3.40;1.33;;;;;;;;;;5015977;28;20053;-80
2023/08/08 02:24:57;;;;;;;4.00;1.52;;;;;;;;;;5015881;28;20099;-79
2023/08/08 02:27:23;;;;;;;6.97;1.50;;;;;;;;;;5003631;28;20105;-79
2023/08/08 02:29:48;;;;;;;5.07;1.33;;;;;;;;;;5015466;28;20044;-80
2023/08/08 02:32:13;;;;;;;5.28;1.45;;;;;;;;;;5015192;28;20033;-80
2023/08/08 02:34:39;;;;;;;5.22;1.55;;;;;;;;;;4990450;28;20038;-81
2023/08/08 02:37:04;;;;;;;5.40;1.40;;;;;;;;;;4994477;28;20042;-81
2023/08/08 02:39:35;;;;;;;4.82;1.60;;;;;;;;;;4999814;28;20376;-80
2023/08/08 02:42:00;;;;;;;5.38;1.40;;;;;;;;;;4981227;28;20124;-81
2023/08/08 02:44:26;;;;;;;3.63;1.60;;;;;;;;;;4980283;28;20125;-81
2023/08/08 02:46:54;;;;;;;4.68;1.30;;;;;;;;;;4979788;28;20034;-80
2023/08/08 02:49:19;;;;;;;4.55;1.60;;;;;;;;;;4981151;28;20502;-80
2023/08/08 02:51:45;;;;;;;6.20;1.50;;;;;;;;;;4982267;28;20128;-81
2023/08/08 02:54:13;;;;;;;5.85;1.55;;;;;;;;;;4986847;28;20560;-80
2023/08/08 02:56:38;;;;;;;5.32;1.48;;;;;;;;;;4985873;28;20416;-81
2023/08/08 02:59:06;;;;;;;4.88;1.70;;;;;;;;;;4996325;28;20046;-80
2023/08/08 03:01:31;;;;;;;3.65;1.52;;;;;;;;;;4971514;28;20034;-80
2023/08/08 03:03:57;;;;;;;3.78;1.52;;;;;;;;;;4975098;28;20030;-80
2023/08/08 03:06:22;;;;;;;4.40;1.38;;;;;;;;;;4992194;28;20042;-80
2023/08/08 03:08:48;;;;;;;4.32;1.42;;;;;;;;;;4997630;28;20076;-80
2023/08/08 03:11:13;;;;;;;3.50;1.50;;;;;;;;;;5013220;28;20036;-80
2023/08/08 03:13:38;;;;;;;3.78;1.98;;;;;;;;;;5020729;28;20509;-81
2023/08/08 03:16:04;;;;;;;4.00;1.58;;;;;;;;;;5004473;28;20042;-81
2023/08/08 03:18:29;;;;;;;4.57;1.52;;;;;;;;;;5005765;28;20396;-80
2023/08/08 03:20:55;;;;;;;3.50;1.50;;;;;;;;;;5014248;28;20113;-80
2023/08/08 03:23:20;;;;;;;5.70;1.88;;;;;;;;;;5002714;28;20053;-81
2023/08/08 03:25:45;;;;;;;7.13;1.98;;;;;;;;;;4997194;28;20038;-80
2023/08/08 03:28:17;;;;;;;5.03;1.70;;;;;;;;;;5014908;28;20064;-80
2023/08/08 03:30:42;;;;;;;6.63;1.58;;;;;;;;;;5005823;28;20137;-80
2023/08/08 03:33:08;;;;;;;8.23;2.60;;;;;;;;;;5006458;28;20044;-80
2023/08/08 03:35:33;;;;;;;4.50;1.50;;;;;;;;;;5010801;28;20061;-80
2023/08/08 03:37:58;;;;;;;4.78;1.70;;;;;;;;;;5000609;28;20378;-80
2023/08/08 03:40:24;;;;;;;5.88;2.22;;;;;;;;;;5005732;28;20034;-80
2023/08/08 03:42:49;;;;;;;6.03;1.77;;;;;;;;;;5005969;28;20072;-79
2023/08/08 03:45:14;;;;;;;6.25;1.63;;;;;;;;;;5027543;28;20164;-80
2023/08/08 03:47:40;;;;;;;6.80;1.85;;;;;;;;;;5012706;28;20044;-80
2023/08/08 03:50:07;;;;;;;4.75;1.77;;;;;;;;;;5004324;28;20049;-80
2023/08/08 03:52:35;;;;;;;5.68;1.98;;;;;;;;;;4992399;28;20033;-81
2023/08/08 03:55:01;;;;;;;5.57;1.55;;;;;;;;;;4991428;28;20049;-80
2023/08/08 03:57:26;;;;;;;7.82;2.00;;;;;;;;;;4999282;28;20459;-80
2023/08/08 03:59:52;;;;;;;3.50;1.70;;;;;;;;;;4985994;28;20125;-80
2023/08/08 04:02:23;;;;;;;5.60;1.58;;;;;;;;;;4994912;28;20029;-80
2023/08/08 04:04:48;;;;;;;4.38;1.42;;;;;;;;;;4985076;28;20038;-80
2023/08/08 04:07:14;;;;;;;5.35;1.77;;;;;;;;;;4984021;28;20092;-80
2023/08/08 04:09:47;;;;;;;4.85;1.70;;;;;;;;;;4977396;28;20057;-81
2023/08/08 04:12:12;;;;;;;3.70;1.52;;;;;;;;;;4975499;28;20073;-81
2023/08/08 04:14:37;;;;;;;5.15;1.70;;;;;;;;;;4983815;28;20177;-81
2023/08/08 04:17:04;;;;;;;4.25;1.77;;;;;;;;;;4990418;28;20030;-81
2023/08/08 04:19:30;;;;;;;3.67;1.50;;;;;;;;;;5012375;28;20116;-81
2023/08/08 04:21:55;;;;;;;6.82;1.83;;;;;;;;;;5012753;28;20573;-82
2023/08/08 04:24:20;;;;;;;5.15;1.40;;;;;;;;;;5005584;28;20391;-81
2023/08/08 04:26:46;;;;;;;4.88;1.60;;;;;;;;;;4994844;28;20178;-81
2023/08/08 04:29:11;;;;;;;4.40;1.50;;;;;;;;;;4987060;28;20030;-82
2023/08/08 04:31:36;;;;;;;4.65;1.40;;;;;;;;;;4988431;28;20045;-81
2023/08/08 04:34:02;;;;;;;5.15;1.80;;;;;;;;;;5012354;28;20513;-82
2023/08/08 04:36:28;;;;;;;4.45;1.52;;;;;;;;;;5010572;28;20040;-81
2023/08/08 04:38:53;;;;;;;4.40;1.80;;;;;;;;;;5002970;28;20053;-80
2023/08/08 04:41:18;;;;;;;4.60;1.63;;;;;;;;;;5012992;28;20033;-81
2023/08/08 04:43:44;;;;;;;6.00;1.70;;;;;;;;;;5010457;28;20542;-82
2023/08/08 04:46:09;;;;;;;5.40;1.75;;;;;;;;;;5011285;28;20053;-81
2023/08/08 04:48:37;;;;;;;5.43;1.70;;;;;;;;;;5011386;28;20057;-82
2023/08/08 04:51:04;;;;;;;4.25;1.80;;;;;;;;;;5000814;28;20412;-82
2023/08/08 04:53:29;;;;;;;5.03;1.80;;;;;;;;;;5014511;28;20045;-81
2023/08/08 04:55:54;;;;;;;3.35;1.58;;;;;;;;;;5009176;28;20028;-82
2023/08/08 04:58:20;;;;;;;4.05;1.58;;;;;;;;;;5008375;28;20077;-82
2023/08/08 05:00:46;;;;;;;4.55;1.67;;;;;;;;;;4993473;28;20034;-82
2023/08/08 05:03:11;;;;;;;4.40;1.50;;;;;;;;;;4979228;28;20026;-83
2023/08/08 05:05:37;;;;;;;4.93;1.60;;;;;;;;;;4979770;28;20084;-82
2023/08/08 05:08:02;;;;;;;3.67;1.50;;;;;;;;;;4974758;28;20057;-83
2023/08/08 05:10:28;;;;;;;4.05;1.55;;;;;;;;;;4995009;28;20496;-83
2023/08/08 05:12:53;;;;;;;3.67;1.63;;;;;;;;;;4984926;28;20493;-82
2023/08/08 05:15:20;;;;;;;4.70;1.48;;;;;;;;;;4984224;28;20037;-82
2023/08/08 05:17:45;;;;;;;4.57;1.60;;;;;;;;;;4999144;28;20416;-82
2023/08/08 05:20:12;;;;;;;4.95;1.17;;;;;;;;;;4997341;28;20041;-83
2023/08/08 05:22:37;;;;;;;4.15;1.33;;;;;;;;;;5012348;28;20504;-83
2023/08/08 05:25:03;;;;;;;3.55;1.35;;;;;;;;;;5013860;28;20046;-82
2023/08/08 05:27:28;;;;;;;5.03;1.45;;;;;;;;;;5003546;28;20038;-82
2023/08/08 05:29:53;;;;;;;3.28;1.55;;;;;;;;;;5004505;28;20034;-82
2023/08/08 05:32:19;;;;;;;4.65;1.30;;;;;;;;;;4997003;28;20060;-82
2023/08/08 05:34:44;;;;;;;4.35;1.45;;;;;;;;;;4986490;28;20492;-81
2023/08/08 05:37:09;;;;;;;3.00;1.50;;;;;;;;;;5018707;28;20123;-82
2023/08/08 05:39:35;;;;;;;3.63;1.20;;;;;;;;;;4996140;28;20547;-81
2023/08/08 05:42:00;;;;;;;4.35;1.50;;;;;;;;;;5013145;28;20121;-82
2023/08/08 05:44:26;;;;;;;5.22;1.77;;;;;;;;;;5013306;28;20113;-81
2023/08/08 05:46:52;;;;;;;3.00;1.30;;;;;;;;;;5022943;28;20069;-81
2023/08/08 05:49:17;;;;;;;5.68;1.40;;;;;;;;;;5013377;28;20398;-82
2023/08/08 05:51:43;;;;;;;4.00;1.38;;;;;;;;;;5002481;28;20080;-82
2023/08/08 05:54:08;;;;;;;3.97;1.40;;;;;;;;;;5007621;28;20041;-81
2023/08/08 05:56:37;;;;;;;5.57;1.55;;;;;;;;;;5005541;28;20025;-81
2023/08/08 05:59:02;;;;;;;5.20;1.70;;;;;;;;;;5000213;28;20038;-81
2023/08/08 06:01:28;;;;;;;5.57;1.55;;;;;;;;;;5000472;28;20032;-81
2023/08/08 06:03:53;;;;;;;4.05;1.52;;;;;;;;;;5003935;28;20041;-81
2023/08/08 06:06:19;;;;;;;5.10;1.50;;;;;;;;;;5007357;28;20045;-81
2023/08/08 06:08:44;;;;;;;5.60;1.45;;;;;;;;;;5014695;28;20029;-81
2023/08/08 06:11:10;;;;;;;4.72;1.52;;;;;;;;;;4999564;28;20042;-80
2023/08/08 06:13:35;;;;;;;4.00;1.63;;;;;;;;;;5007414;28;20029;-81
2023/08/08 06:16:01;;;;;;;4.43;1.60;;;;;;;;;;5028026;28;20033;-82
2023/08/08 06:18:29;;;;;;;5.15;1.65;;;;;;;;;;5013008;28;20113;-81
2023/08/08 06:20:54;;;;;;;4.43;1.55;;;;;;;;;;5015634;28;20053;-81
2023/08/08 06:23:20;;;;;;;5.78;1.50;;;;;;;;;;5011970;28;20069;-81
2023/08/08 06:25:45;;;;;;;3.85;1.60;;;;;;;;;;5013029;28;20498;-81
2023/08/08 06:28:11;;;;;;;6.15;2.03;;;;;;;;;;5002759;28;20470;-82
2023/08/08 06:30:36;;;;;;;7.45;1.50;;;;;;;;;;5013596;28;20038;-82
2023/08/08 06:33:02;;;;;;;4.75;1.35;;;;;;;;;;5013985;28;20049;-81
2023/08/08 06:35:27;;;;;;;5.43;1.48;;;;;;;;;;5018856;28;20174;-81
2023/08/08 06:37:52;;;;;;;5.28;1.67;;;;;;;;;;5013575;28;20037;-81
2023/08/08 06:40:18;;;;;;;3.95;1.30;;;;;;;;;;5003641;28;20454;-81
2023/08/08 06:42:43;;;;;;;3.90;1.40;;;;;;;;;;4991526;28;20037;-81
2023/08/08 06:45:09;;;;;;;4.43;1.70;;;;;;;;;;5009313;28;20066;-81
2023/08/08 06:47:44;;;;;;;3.78;1.40;;;;;;;;;;4991989;28;20084;-81
2023/08/08 06:50:09;;;;;;;4.60;1.60;;;;;;;;;;4976564;28;20038;-81
2023/08/08 06:52:35;;;;;;;5.75;1.63;;;;;;;;;;4980550;28;20038;-81
2023/08/08 06:55:01;;;;;;;4.88;1.33;;;;;;;;;;4991925;28;20545;-81
2023/08/08 06:57:26;;;;;;;4.78;1.60;;;;;;;;;;5000985;28;20045;-82
2023/08/08 06:59:52;;;;;;;4.10;1.67;;;;;;;;;;4992161;28;20502;-81
2023/08/08 07:02:30;;;;;;;3.60;1.60;;;;;;;;;;4992756;28;20109;-81
2023/08/08 07:04:55;;;;;;;6.53;1.58;;;;;;;;;;4976607;28;20045;-81
2023/08/08 07:07:20;;;;;;;4.18;1.42;;;;;;;;;;4991041;28;20109;-80
2023/08/08 07:09:46;;;;;;;3.65;1.50;;;;;;;;;;4988268;28;20034;-80
2023/08/08 07:12:11;;;;;;;4.47;1.60;;;;;;;;;;4994717;28;20034;-80
2023/08/08 07:14:37;;;;;;;3.72;1.27;;;;;;;;;;5012287;28;20030;-81
2023/08/08 07:17:03;;;;;;;4.75;1.50;;;;;;;;;;5010906;28;20034;-81
2023/08/08 07:19:29;;;;;;;3.55;1.40;;;;;;;;;;5005119;28;20037;-82
2023/08/08 07:21:56;;;;;;;4.15;1.25;;;;;;;;;;5004307;28;20036;-82
2023/08/08 07:24:26;;;;;;;4.80;1.48;;;;;;;;;;5004842;28;20482;-81
2023/08/08 07:26:51;;;;;;;5.65;1.50;;;;;;;;;;4998733;28;20420;-81
2023/08/08 07:29:17;;;;;;;3.63;1.40;;;;;;;;;;5014514;28;20030;-82
2023/08/08 07:31:42;;;;;;;3.75;1.50;;;;;;;;;;5011749;28;20034;-81
2023/08/08 07:34:08;;;;;;;3.67;1.50;;;;;;;;;;5011824;28;20041;-80
2023/08/08 07:36:33;;;;;;;6.63;1.63;;;;;;;;;;5010646;28;20429;-81
2023/08/08 07:38:59;;;;;;;4.43;1.67;;;;;;;;;;5002666;28;20088;-81
2023/08/08 07:41:30;;;;;;;4.95;1.60;;;;;;;;;;5012369;28;20037;-81
2023/08/08 07:43:55;;;;;;;3.42;1.52;;;;;;;;;;5015529;28;20143;-81
2023/08/08 07:46:20;;;;;;;4.07;1.40;;;;;;;;;;4998046;28;20037;-81
2023/08/08 07:48:46;;;;;;;5.28;1.58;;;;;;;;;;5003843;28;20188;-81
2023/08/08 07:51:11;;;;;;;4.05;1.35;;;;;;;;;;5011174;28;20041;-81
2023/08/08 07:53:36;;;;;;;5.75;1.60;;;;;;;;;;5003266;28;20033;-81
2023/08/08 07:56:02;;;;;;;4.28;1.38;;;;;;;;;;4999316;28;20037;-80
2023/08/08 07:58:36;;;;;;;4.25;1.40;;;;;;;;;;4998946;28;20044;-81
2023/08/08 08:01:08;;;;;;;6.32;1.40;;;;;;;;;;4979467;28;20050;-81
2023/08/08 08:03:34;;;;;;;3.20;1.30;;;;;;;;;;4974039;28;20402;-82
2023/08/08 08:05:59;;;;;;;4.70;1.38;;;;;;;;;;4969894;28;20042;-82
2023/08/08 08:08:24;;;;;;;3.80;1.33;;;;;;;;;;4993149;28;20463;-81
2023/08/08 08:10:50;;;;;;;6.03;1.67;;;;;;;;;;4998036;28;20030;-80
2023/08/08 08:13:22;;;;;;;4.72;1.67;;;;;;;;;;4983696;28;20077;-81
2023/08/08 08:15:56;;;;;;;5.50;1.48;;;;;;;;;;4989476;28;20028;-81
2023/08/08 08:18:22;;;;;;;4.53;1.48;;;;;;;;;;4993877;28;20038;-80
2023/08/08 08:20:48;;;;;;;5.63;1.30;;;;;;;;;;4993439;28;20034;-81
2023/08/08 08:23:14;;;;;;;3.97;1.30;;;;;;;;;;4985864;28;20150;-81
2023/08/08 08:25:39;;;;;;;5.13;1.42;;;;;;;;;;4970874;28;20132;-80
2023/08/08 08:28:05;;;;;;;4.40;1.40;;;;;;;;;;5009262;28;20051;-81
2023/08/08 08:30:30;;;;;;;3.97;1.42;;;;;;;;;;5000993;28;20140;-80
2023/08/08 08:33:00;;;;;;;3.80;1.10;;;;;;;;;;5010483;28;20486;-81
2023/08/08 08:35:28;;;;;;;5.00;1.23;;;;;;;;;;5009929;28;20034;-81
2023/08/08 08:37:54;;;;;;;6.55;1.52;;;;;;;;;;5013586;28;20046;-82
2023/08/08 08:40:19;;;;;;;3.83;1.40;;;;;;;;;;5013547;28;20370;-82
2023/08/08 08:42:46;;;;;;;4.32;1.30;;;;;;;;;;4992840;28;20602;-83
2023/08/08 08:45:12;;;;;;;4.72;1.40;;;;;;;;;;4993302;28;20129;-81
2023/08/08 08:47:41;;;;;;;3.70;1.30;;;;;;;;;;4991987;28;20034;-82
2023/08/08 08:50:07;;;;;;;5.20;1.35;;;;;;;;;;4995602;28;20068;-81
2023/08/08 08:52:32;;;;;;;4.35;1.40;;;;;;;;;;5011573;28;20025;-81
2023/08/08 08:55:10;;;;;;;4.82;1.50;;;;;;;;;;5029606;28;20400;-82
2023/08/08 08:57:52;;;;;;;6.03;1.50;;;;;;;;;;4991740;28;20792;-80
2023/08/08 09:00:18;;;;;;;3.33;1.30;;;;;;;;;;4991545;28;20030;-80
2023/08/08 09:02:44;;;;;;;4.10;1.17;;;;;;;;;;4993774;28;20723;-81
2023/08/08 09:05:12;;;;;;;4.05;1.25;;;;;;;;;;4974987;28;21147;-80
2023/08/08 09:07:44;;;;;;;4.38;1.60;;;;;;;;;;4997338;28;20038;-82
2023/08/08 09:10:10;;;;;;;6.30;1.35;;;;;;;;;;4985059;28;20159;-80
2023/08/08 09:12:36;;;;;;;3.88;1.33;;;;;;;;;;5015117;28;20108;-82
2023/08/08 09:15:10;;;;;;;3.40;1.15;;;;;;;;;;5012980;28;20397;-80
2023/08/08 09:17:35;;;;;;;3.92;1.30;;;;;;;;;;5015806;28;20091;-81
2023/08/08 09:20:01;;;;;;;3.58;1.08;;;;;;;;;;4995610;28;20045;-81
2023/08/08 09:22:28;;;;;;;4.75;1.13;;;;;;;;;;5004864;28;20485;-81
2023/08/08 09:24:54;;;;;;;2.95;1.20;;;;;;;;;;5021034;28;20038;-81
2023/08/08 09:27:20;;;;;;;3.83;1.30;;;;;;;;;;4992331;28;20034;-80
2023/08/08 09:29:45;;;;;;;4.20;1.13;;;;;;;;;;5014430;28;20477;-81
2023/08/08 09:32:12;;;;;;;6.47;1.23;;;;;;;;;;4997495;28;20370;-81
2023/08/08 09:34:42;;;;;;;5.80;1.40;;;;;;;;;;5016551;28;20034;-82
2023/08/08 09:37:07;;;;;;;3.33;1.10;;;;;;;;;;4997233;28;20047;-82
2023/08/08 09:39:33;;;;;;;4.35;1.10;;;;;;;;;;5011761;28;20041;-82
2023/08/08 09:41:58;;;;;;;4.65;1.20;;;;;;;;;;4989721;28;20389;-83
2023/08/08 09:44:26;;;;;;;3.30;1.35;;;;;;;;;;5008217;28;20029;-83
2023/08/08 09:46:51;;;;;;;4.80;1.27;;;;;;;;;;5012110;28;20216;-81
2023/08/08 09:49:21;;;;;;;3.35;1.30;;;;;;;;;;5014394;28;20312;-81
2023/08/08 09:51:48;;;;;;;4.20;1.17;;;;;;;;;;5014166;28;20030;-82
2023/08/08 09:54:14;;;;;;;6.68;1.33;;;;;;;;;;5006920;28;20038;-82
2023/08/08 09:56:39;;;;;;;5.53;1.33;;;;;;;;;;4986297;28;20034;-83
2023/08/08 09:59:06;;;;;;;4.65;1.40;;;;;;;;;;4973708;28;20060;-83
2023/08/08 10:01:46;;;;;;;3.55;1.13;;;;;;;;;;4982940;28;20032;-81
2023/08/08 10:04:12;;;;;;;4.47;1.38;;;;;;;;;;4997426;28;20124;-81
2023/08/08 10:06:38;;;;;;;8.33;1.47;;;;;;;;;;4991582;28;20119;-82
2023/08/08 10:09:04;;;;;;;3.63;1.30;;;;;;;;;;4997670;28;20366;-82
2023/08/08 10:11:30;;;;;;;5.43;2.10;;;;;;;;;;4992512;28;20052;-80
2023/08/08 10:13:57;;;;;;;4.50;1.50;;;;;;;;;;5019446;28;20396;-80
2023/08/08 10:16:23;;;;;;;2.85;1.00;;;;;;;;;;5002082;28;20393;-80
2023/08/08 10:18:57;;;;;;;6.95;1.60;;;;;;;;;;4988230;28;20096;-80
2023/08/08 10:21:24;;;;;;;4.53;1.08;;;;;;;;;;4983689;28;20049;-82
2023/08/08 10:23:49;;;;;;;5.50;1.05;;;;;;;;;;4990621;28;20057;-81
2023/08/08 10:26:21;;;;;;;4.57;1.05;;;;;;;;;;4987575;28;20069;-81
2023/08/08 10:28:57;;;;;;;5.72;1.20;;;;;;;;;;4983625;28;20040;-81
2023/08/08 10:31:22;;;;;;;4.07;1.10;;;;;;;;;;4997804;28;20064;-81
2023/08/08 10:33:48;;;;;;;5.72;0.90;;;;;;;;;;4985889;28;20496;-81
2023/08/08 10:36:13;;;;;;;3.00;0.90;;;;;;;;;;4995348;28;20046;-81
2023/08/08 10:38:48;;;;;;;3.75;1.10;;;;;;;;;;4981486;28;20049;-82
2023/08/08 10:41:26;;;;;;;2.95;1.15;;;;;;;;;;4996173;28;20786;-80
2023/08/08 10:43:56;;;;;;;2.85;1.10;;;;;;;;;;5018558;28;20113;-82
2023/08/08 10:46:27;;;;;;;3.40;1.42;;;;;;;;;;4970457;28;20065;-82
2023/08/08 10:48:59;;;;;;;2.50;1.08;;;;;;;;;;5027696;28;20037;-82
2023/08/08 10:51:42;;;;;;;3.42;1.10;;;;;;;;;;4996342;28;20153;-82
2023/08/08 10:54:30;;;;;;;3.72;1.10;;;;;;;;;;4981737;28;20041;-82
2023/08/08 10:56:58;;;;;;;4.57;1.35;;;;;;;;;;4996166;28;20492;-82
2023/08/08 10:59:24;;;;;;;3.55;1.40;;;;;;;;;;4957193;28;20069;-82
2023/08/08 11:01:52;;;;;;;3.95;1.33;;;;;;;;;;5006053;28;20030;-82
2023/08/08 11:04:26;;;;;;;5.03;1.20;;;;;;;;;;4999071;28;20057;-82
2023/08/08 11:06:54;;;;;;;2.63;1.02;;;;;;;;;;4995159;28;20083;-82
2023/08/08 11:09:20;;;;;;;5.07;1.20;;;;;;;;;;5039442;28;20033;-83
2023/08/08 11:11:46;;;;;;;4.43;1.17;;;;;;;;;;4996825;28;20034;-82
2023/08/08 11:14:19;;;;;;;3.80;1.17;;;;;;;;;;4995493;28;20286;-84
2023/08/08 11:16:46;;;;;;;3.53;1.13;;;;;;;;;;5008697;28;20936;-82
2023/08/08 11:19:21;;;;;;;;;;;;;;;;;;4992343;28;20052;-82
2023/08/08 11:22:20;;;;;;;2.38;1.08;;;;;;;;;;4969403;28;20387;-82
2023/08/08 11:24:46;;;;;;;5.13;1.40;;;;;;;;;;4981818;28;20041;-81
2023/08/08 11:27:11;;;;;;;2.45;0.80;;;;;;;;;;4994163;28;20050;-82
2023/08/08 11:29:37;;;;;;;3.38;1.10;;;;;;;;;;4999054;28;20056;-81
2023/08/08 11:32:03;;;;;;;2.85;1.10;;;;;;;;;;4977471;28;20505;-81
2023/08/08 11:34:34;;;;;;;3.20;1.38;;;;;;;;;;4994295;28;20042;-82
2023/08/08 11:37:00;;;;;;;2.70;1.17;;;;;;;;;;4984109;28;20493;-80
2023/08/08 11:39:26;;;;;;;3.15;1.38;;;;;;;;;;4977672;28;20038;-81
2023/08/08 11:41:52;;;;;;;2.55;1.27;;;;;;;;;;4978866;28;20375;-80
2023/08/08 11:44:18;;;;;;;4.22;1.48;;;;;;;;;;4984456;28;20044;-80
2023/08/08 11:46:45;;;;;;;3.28;1.40;;;;;;;;;;4995547;28;20041;-81
2023/08/08 11:49:11;;;;;;;3.03;1.30;;;;;;;;;;4997194;28;20035;-81
2023/08/08 11:51:36;;;;;;;2.53;1.15;;;;;;;;;;4984143;28;20117;-82
2023/08/08 11:54:06;;;;;;;3.45;1.10;;;;;;;;;;4975217;28;20450;-82
2023/08/08 11:56:36;;;;;;;3.90;1.10;;;;;;;;;;4981632;28;20502;-83
2023/08/08 11:59:02;;;;;;;3.75;1.10;;;;;;;;;;4989622;28;20045;-81
2023/08/08 12:01:28;;;;;;;4.47;1.08;;;;;;;;;;5007485;28;20125;-82
2023/08/08 12:03:54;;;;;;;2.37;0.70;;;;;;;;;;4978508;28;20042;-80
2023/08/08 12:06:30;;;;;;;3.25;1.10;;;;;;;;;;4980358;28;20127;-82
2023/08/08 12:08:55;;;;;;;6.70;1.27;;;;;;;;;;4991174;28;20129;-82
2023/08/08 12:11:21;;;;;;;4.05;1.20;;;;;;;;;;5014656;28;20133;-82
2023/08/08 12:13:46;;;;;;;3.63;1.10;;;;;;;;;;5007267;28;20030;-81
2023/08/08 12:16:14;;;;;;;3.42;1.13;;;;;;;;;;4994874;28;20053;-80
2023/08/08 12:18:40;;;;;;;3.28;1.40;;;;;;;;;;5011971;28;20099;-80
2023/08/08 12:21:08;;;;;;;3.47;1.40;;;;;;;;;;5004595;28;20524;-82
2023/08/08 12:23:35;;;;;;;;;;;;;;;;;;5000193;28;20464;-82
2023/08/08 12:26:04;;;;;;;4.65;1.70;;;;;;;;;;5019226;28;20225;-81
2023/08/08 12:28:30;;;;;;;7.32;2.35;;;;;;;;;;4999930;28;20504;-82
2023/08/08 12:30:55;;;;;;;6.15;1.75;;;;;;;;;;5001813;28;20049;-81
2023/08/08 12:33:21;;;;;;;4.72;1.80;;;;;;;;;;5015613;28;20052;-79
2023/08/08 12:35:47;;;;;;;4.38;2.25;;;;;;;;;;4995395;28;20030;-80
2023/08/08 12:38:14;;;;;;;3.42;1.90;;;;;;;;;;4997895;28;20129;-81
2023/08/08 12:40:39;;;;;;;4.43;2.03;;;;;;;;;;4999554;28;20504;-81
2023/08/08 12:43:05;;;;;;;4.35;2.13;;;;;;;;;;4992006;28;20040;-81
2023/08/08 12:45:30;;;;;;;4.80;2.25;;;;;;;;;;5001968;28;20493;-81
2023/08/08 12:47:56;;;;;;;5.93;2.10;;;;;;;;;;5013842;28;20485;-82
2023/08/08 12:50:21;;;;;;;4.32;1.98;;;;;;;;;;4997848;28;20037;-81
2023/08/08 12:52:46;;;;;;;4.97;2.25;;;;;;;;;;4999417;28;20034;-80
2023/08/08 12:55:12;;;;;;;4.63;1.88;;;;;;;;;;5001116;28;20040;-81
2023/08/08 12:57:38;;;;;;;3.92;1.90;;;;;;;;;;5011677;28;20045;-81
2023/08/08 13:00:04;;;;;;;3.95;1.92;;;;;;;;;;4993987;28;20505;-82
2023/08/08 13:02:29;;;;;;;3.65;1.80;;;;;;;;;;5003844;28;20083;-82
2023/08/08 13:04:58;;;;;;;5.43;2.00;;;;;;;;;;5012761;28;20049;-82
2023/08/08 13:07:25;;;;;;;3.38;1.50;;;;;;;;;;4994724;28;20056;-81
2023/08/08 13:09:51;;;;;;;4.28;1.77;;;;;;;;;;5025712;28;20148;-81
2023/08/08 13:12:16;;;;;;;6.47;2.00;;;;;;;;;;5001953;28;20057;-81
2023/08/08 13:14:42;;;;;;;4.00;1.75;;;;;;;;;;5013174;28;20565;-82
2023/08/08 13:17:07;;;;;;;4.93;1.60;;;;;;;;;;5004041;28;20056;-81
2023/08/08 13:19:32;;;;;;;3.63;1.45;;;;;;;;;;5001912;28;20237;-82
2023/08/08 13:21:58;;;;;;;3.33;1.33;;;;;;;;;;5005584;28;20182;-82
2023/08/08 13:24:23;;;;;;;3.67;1.30;;;;;;;;;;4997704;28;20034;-81
2023/08/08 13:26:52;;;;;;;3.10;1.38;;;;;;;;;;5011510;28;20487;-81
2023/08/08 13:29:17;;;;;;;4.18;1.58;;;;;;;;;;5016008;28;20077;-82
2023/08/08 13:31:43;;;;;;;3.75;1.40;;;;;;;;;;4995240;28;20058;-82
2023/08/08 13:34:09;;;;;;;3.90;1.52;;;;;;;;;;4993233;28;20038;-82
2023/08/08 13:36:34;;;;;;;3.10;1.20;;;;;;;;;;5010558;28;20045;-82
2023/08/08 13:39:00;;;;;;;1.45;0.70;;;;;;;;;;4992668;28;20506;-81
2023/08/08 13:41:25;;;;;;;3.00;0.93;;;;;;;;;;4978926;28;20034;-82
2023/08/08 13:43:51;;;;;;;2.17;0.80;;;;;;;;;;4995731;28;20412;-80
2023/08/08 13:46:16;;;;;;;2.55;1.02;;;;;;;;;;4994168;28;20038;-81
2023/08/08 13:48:42;;;;;;;3.50;0.98;;;;;;;;;;4980654;28;20046;-80
2023/08/08 13:51:07;;;;;;;3.25;1.20;;;;;;;;;;4990647;28;20152;-82
2023/08/08 13:54:06;;;;;;;2.40;1.05;;;;;;;;;;4968185;28;20030;-80
2023/08/08 13:56:31;;;;;;;3.15;0.90;;;;;;;;;;5000805;28;20053;-81
2023/08/08 13:59:00;;;;;;;1.90;0.75;;;;;;;;;;4965598;28;20104;-82
2023/08/08 14:01:25;;;;;;;3.92;0.90;;;;;;;;;;4979975;28;20132;-81
2023/08/08 14:04:00;;;;;;;2.80;1.00;;;;;;;;;;4991340;28;20125;-82
2023/08/08 14:06:27;;;;;;;2.13;0.70;;;;;;;;;;4976284;28;20045;-81
2023/08/08 14:08:55;;;;;;;3.00;0.80;;;;;;;;;;4973713;28;20045;-81
2023/08/08 14:11:20;;;;;;;2.28;0.90;;;;;;;;;;4999492;28;20034;-80
2023/08/08 14:13:46;;;;;;;2.88;0.90;;;;;;;;;;4981376;28;20038;-81
2023/08/08 14:16:11;;;;;;;2.38;0.80;;;;;;;;;;5001010;28;20034;-80
2023/08/08 14:18:37;;;;;;;3.85;1.10;;;;;;;;;;5015004;28;20117;-80
2023/08/08 14:21:04;;;;;;;2.28;0.80;;;;;;;;;;5007952;28;20552;-81
2023/08/08 14:23:30;;;;;;;2.58;0.90;;;;;;;;;;5013586;28;20037;-81
2023/08/08 14:25:58;;;;;;;3.80;0.90;;;;;;;;;;4999863;28;20109;-81
2023/08/08 14:28:23;;;;;;;2.28;0.80;;;;;;;;;;5004355;28;20072;-81
2023/08/08 14:30:49;;;;;;;2.10;0.77;;;;;;;;;;5001419;28;20112;-81
2023/08/08 14:33:22;;;;;;;2.17;0.93;;;;;;;;;;5018287;28;20033;-82
2023/08/08 14:35:47;;;;;;;2.53;0.90;;;;;;;;;;5018831;28;20042;-82
2023/08/08 14:38:14;;;;;;;2.83;0.95;;;;;;;;;;5002365;28;20048;-82
2023/08/08 14:40:39;;;;;;;1.90;0.80;;;;;;;;;;5020455;28;20029;-82